sensor_id;sensor_type;location;lat;lon;timestamp;temperature;humidity
42479;DHT22;28110;47.080;9.476;2023-03-23T00:01:00;12.60;99.90
42479;DHT22;28110;47.080;9.476;2023-03-23T00:03:26;12.60;99.90
42479;DHT22;28110;47.080;9.476;2023-03-23T00:06:03;12.50;99.90
42479;DHT22;28110;47.080;9.476;2023-03-23T00:08:31;12.60;99.90
42479;DHT22;28110;47.080;9.476;2023-03-23T00:10:57;12.60;99.90
42479;DHT22;28110;47.080;9.476;2023-03-23T00:13:26;12.60;99.90
42479;DHT22;28110;47.080;9.476;2023-03-23T00:15:52;12.60;99.90
42479;DHT22;28110;47.080;9.476;2023-03-23T00:18:21;12.60;99.90
42479;DHT22;28110;47.080;9.476;2023-03-23T00:23:18;12.60;99.90
42479;DHT22;28110;47.080;9.476;2023-03-23T00:25:48;12.60;99.90
42479;DHT22;28110;47.080;9.476;2023-03-23T00:28:16;12.60;99.90
42479;DHT22;28110;47.080;9.476;2023-03-23T00:30:42;12.60;99.90
42479;DHT22;28110;47.080;9.476;2023-03-23T00:33:08;12.60;99.90
42479;DHT22;28110;47.080;9.476;2023-03-23T00:35:38;12.60;99.90
42479;DHT22;28110;47.080;9.476;2023-03-23T00:38:04;12.60;99.90
42479;DHT22;28110;47.080;9.476;2023-03-23T00:40:29;12.70;99.90
42479;DHT22;28110;47.080;9.476;2023-03-23T00:42:56;12.60;99.90
42479;DHT22;28110;47.080;9.476;2023-03-23T00:45:21;12.60;99.90
42479;DHT22;28110;47.080;9.476;2023-03-23T00:47:49;12.70;99.90
42479;DHT22;28110;47.080;9.476;2023-03-23T00:50:16;12.80;99.90
42479;DHT22;28110;47.080;9.476;2023-03-23T00:52:43;12.80;99.90
42479;DHT22;28110;47.080;9.476;2023-03-23T00:55:09;12.80;99.90
42479;DHT22;28110;47.080;9.476;2023-03-23T00:57:35;12.80;99.90
42479;DHT22;28110;47.080;9.476;2023-03-23T01:00:01;12.70;99.90
42479;DHT22;28110;47.080;9.476;2023-03-23T01:02:26;12.80;99.90
42479;DHT22;28110;47.080;9.476;2023-03-23T01:04:52;12.80;99.90
42479;DHT22;28110;47.080;9.476;2023-03-23T01:07:21;12.80;99.80
42479;DHT22;28110;47.080;9.476;2023-03-23T01:09:48;12.80;99.80
42479;DHT22;28110;47.080;9.476;2023-03-23T01:12:14;12.80;99.40
42479;DHT22;28110;47.080;9.476;2023-03-23T01:14:41;12.90;99.50
42479;DHT22;28110;47.080;9.476;2023-03-23T01:17:07;12.90;99.80
42479;DHT22;28110;47.080;9.476;2023-03-23T01:19:33;12.90;99.10
42479;DHT22;28110;47.080;9.476;2023-03-23T01:21:58;12.90;99.30
42479;DHT22;28110;47.080;9.476;2023-03-23T01:24:24;12.90;99.00
42479;DHT22;28110;47.080;9.476;2023-03-23T01:26:49;12.80;99.40
42479;DHT22;28110;47.080;9.476;2023-03-23T01:29:15;12.70;99.60
42479;DHT22;28110;47.080;9.476;2023-03-23T01:31:41;12.70;99.10
42479;DHT22;28110;47.080;9.476;2023-03-23T01:34:08;12.70;99.10
42479;DHT22;28110;47.080;9.476;2023-03-23T01:36:33;12.80;98.50
42479;DHT22;28110;47.080;9.476;2023-03-23T01:39:00;12.80;97.90
42479;DHT22;28110;47.080;9.476;2023-03-23T01:41:28;12.90;97.80
42479;DHT22;28110;47.080;9.476;2023-03-23T01:45:11;13.00;97.40
42479;DHT22;28110;47.080;9.476;2023-03-23T01:46:53;13.00;97.10
42479;DHT22;28110;47.080;9.476;2023-03-23T01:49:25;13.00;97.30
42479;DHT22;28110;47.080;9.476;2023-03-23T01:51:58;13.10;97.30
42479;DHT22;28110;47.080;9.476;2023-03-23T01:54:25;13.00;98.00
42479;DHT22;28110;47.080;9.476;2023-03-23T01:57:17;12.80;98.00
42479;DHT22;28110;47.080;9.476;2023-03-23T01:59:43;12.80;97.70
42479;DHT22;28110;47.080;9.476;2023-03-23T02:02:11;12.80;98.30
42479;DHT22;28110;47.080;9.476;2023-03-23T02:04:38;12.70;98.30
42479;DHT22;28110;47.080;9.476;2023-03-23T02:07:07;12.60;98.10
42479;DHT22;28110;47.080;9.476;2023-03-23T02:09:33;12.70;98.20
42479;DHT22;28110;47.080;9.476;2023-03-23T02:11:59;12.60;98.00
42479;DHT22;28110;47.080;9.476;2023-03-23T02:14:26;12.70;97.60
42479;DHT22;28110;47.080;9.476;2023-03-23T02:17:10;12.70;97.60
42479;DHT22;28110;47.080;9.476;2023-03-23T02:20:29;12.60;98.00
42479;DHT22;28110;47.080;9.476;2023-03-23T02:31:25;12.80;96.80
42479;DHT22;28110;47.080;9.476;2023-03-23T02:36:30;12.70;97.50
42479;DHT22;28110;47.080;9.476;2023-03-23T02:41:31;12.50;98.00
42479;DHT22;28110;47.080;9.476;2023-03-23T02:43:57;12.50;98.70
42479;DHT22;28110;47.080;9.476;2023-03-23T02:46:23;12.40;98.80
42479;DHT22;28110;47.080;9.476;2023-03-23T02:48:52;12.40;98.10
42479;DHT22;28110;47.080;9.476;2023-03-23T02:51:20;12.30;98.30
42479;DHT22;28110;47.080;9.476;2023-03-23T02:53:48;12.30;98.80
42479;DHT22;28110;47.080;9.476;2023-03-23T02:56:16;12.30;98.70
42479;DHT22;28110;47.080;9.476;2023-03-23T02:58:42;12.20;99.10
42479;DHT22;28110;47.080;9.476;2023-03-23T03:04:22;12.10;99.40
42479;DHT22;28110;47.080;9.476;2023-03-23T03:09:33;12.00;99.90
42479;DHT22;28110;47.080;9.476;2023-03-23T03:12:13;12.00;99.90
42479;DHT22;28110;47.080;9.476;2023-03-23T03:15:06;11.90;99.90
42479;DHT22;28110;47.080;9.476;2023-03-23T03:17:35;11.90;99.90
42479;DHT22;28110;47.080;9.476;2023-03-23T03:20:06;11.90;99.90
42479;DHT22;28110;47.080;9.476;2023-03-23T03:22:38;11.90;99.90
42479;DHT22;28110;47.080;9.476;2023-03-23T03:25:05;11.90;99.90
42479;DHT22;28110;47.080;9.476;2023-03-23T03:27:32;11.90;99.90
42479;DHT22;28110;47.080;9.476;2023-03-23T03:29:59;11.90;99.90
42479;DHT22;28110;47.080;9.476;2023-03-23T03:32:31;11.90;99.90
42479;DHT22;28110;47.080;9.476;2023-03-23T03:35:00;11.80;99.90
42479;DHT22;28110;47.080;9.476;2023-03-23T03:37:26;11.90;99.90
42479;DHT22;28110;47.080;9.476;2023-03-23T03:39:52;11.80;99.90
42479;DHT22;28110;47.080;9.476;2023-03-23T03:42:18;11.80;99.90
42479;DHT22;28110;47.080;9.476;2023-03-23T03:44:43;11.80;99.90
42479;DHT22;28110;47.080;9.476;2023-03-23T03:47:09;11.90;99.90
42479;DHT22;28110;47.080;9.476;2023-03-23T03:49:34;11.80;99.90
42479;DHT22;28110;47.080;9.476;2023-03-23T03:52:01;11.80;99.90
42479;DHT22;28110;47.080;9.476;2023-03-23T03:54:26;11.80;99.90
42479;DHT22;28110;47.080;9.476;2023-03-23T03:56:52;11.80;99.90
42479;DHT22;28110;47.080;9.476;2023-03-23T03:59:23;11.80;99.90
42479;DHT22;28110;47.080;9.476;2023-03-23T04:01:48;11.70;99.90
42479;DHT22;28110;47.080;9.476;2023-03-23T04:04:19;11.80;99.90
42479;DHT22;28110;47.080;9.476;2023-03-23T04:06:45;11.80;99.90
42479;DHT22;28110;47.080;9.476;2023-03-23T04:09:10;11.80;99.90
42479;DHT22;28110;47.080;9.476;2023-03-23T04:11:36;11.70;99.90
42479;DHT22;28110;47.080;9.476;2023-03-23T04:14:01;11.80;99.90
42479;DHT22;28110;47.080;9.476;2023-03-23T04:16:27;11.70;99.90
42479;DHT22;28110;47.080;9.476;2023-03-23T04:18:55;11.70;99.90
42479;DHT22;28110;47.080;9.476;2023-03-23T04:21:21;11.70;99.90
42479;DHT22;28110;47.080;9.476;2023-03-23T04:23:47;11.70;99.90
42479;DHT22;28110;47.080;9.476;2023-03-23T04:26:12;11.70;99.90
42479;DHT22;28110;47.080;9.476;2023-03-23T04:28:39;11.70;99.90
42479;DHT22;28110;47.080;9.476;2023-03-23T04:31:04;11.70;99.90
42479;DHT22;28110;47.080;9.476;2023-03-23T04:33:30;11.70;99.90
42479;DHT22;28110;47.080;9.476;2023-03-23T04:35:59;11.70;99.90
42479;DHT22;28110;47.080;9.476;2023-03-23T04:38:26;11.70;99.90
42479;DHT22;28110;47.080;9.476;2023-03-23T04:40:52;11.80;99.90
42479;DHT22;28110;47.080;9.476;2023-03-23T04:43:20;11.80;99.70
42479;DHT22;28110;47.080;9.476;2023-03-23T04:45:51;11.80;99.70
42479;DHT22;28110;47.080;9.476;2023-03-23T04:48:17;11.90;99.10
42479;DHT22;28110;47.080;9.476;2023-03-23T04:50:43;12.00;98.60
42479;DHT22;28110;47.080;9.476;2023-03-23T04:53:09;12.10;98.30
42479;DHT22;28110;47.080;9.476;2023-03-23T04:55:36;12.10;98.10
42479;DHT22;28110;47.080;9.476;2023-03-23T04:58:03;12.10;98.00
42479;DHT22;28110;47.080;9.476;2023-03-23T05:00:29;12.10;97.90
42479;DHT22;28110;47.080;9.476;2023-03-23T05:02:55;12.10;97.50
42479;DHT22;28110;47.080;9.476;2023-03-23T05:05:21;12.10;97.70
42479;DHT22;28110;47.080;9.476;2023-03-23T05:07:48;12.20;97.60
42479;DHT22;28110;47.080;9.476;2023-03-23T05:10:15;12.30;97.40
42479;DHT22;28110;47.080;9.476;2023-03-23T05:12:41;12.30;97.00
42479;DHT22;28110;47.080;9.476;2023-03-23T05:15:08;12.50;96.50
42479;DHT22;28110;47.080;9.476;2023-03-23T05:17:34;12.50;96.40
42479;DHT22;28110;47.080;9.476;2023-03-23T05:20:01;12.70;95.50
42479;DHT22;28110;47.080;9.476;2023-03-23T05:22:29;12.80;94.90
42479;DHT22;28110;47.080;9.476;2023-03-23T05:24:58;12.80;95.10
42479;DHT22;28110;47.080;9.476;2023-03-23T05:27:24;12.90;94.60
42479;DHT22;28110;47.080;9.476;2023-03-23T05:29:58;12.90;94.40
42479;DHT22;28110;47.080;9.476;2023-03-23T05:32:27;12.90;94.20
42479;DHT22;28110;47.080;9.476;2023-03-23T05:34:57;12.90;94.30
42479;DHT22;28110;47.080;9.476;2023-03-23T05:37:23;12.90;94.00
42479;DHT22;28110;47.080;9.476;2023-03-23T05:39:49;13.00;93.80
42479;DHT22;28110;47.080;9.476;2023-03-23T05:42:19;12.90;94.30
42479;DHT22;28110;47.080;9.476;2023-03-23T05:44:45;12.90;94.50
42479;DHT22;28110;47.080;9.476;2023-03-23T05:47:10;12.90;94.60
42479;DHT22;28110;47.080;9.476;2023-03-23T05:49:36;12.90;94.00
42479;DHT22;28110;47.080;9.476;2023-03-23T05:52:03;12.90;94.20
42479;DHT22;28110;47.080;9.476;2023-03-23T05:54:29;12.90;94.30
42479;DHT22;28110;47.080;9.476;2023-03-23T05:56:54;12.90;94.10
42479;DHT22;28110;47.080;9.476;2023-03-23T05:59:20;12.90;94.00
42479;DHT22;28110;47.080;9.476;2023-03-23T06:01:46;13.00;93.80
42479;DHT22;28110;47.080;9.476;2023-03-23T06:04:12;13.00;93.70
42479;DHT22;28110;47.080;9.476;2023-03-23T06:06:39;13.10;93.60
42479;DHT22;28110;47.080;9.476;2023-03-23T06:09:04;13.10;93.80
42479;DHT22;28110;47.080;9.476;2023-03-23T06:11:30;13.10;94.00
42479;DHT22;28110;47.080;9.476;2023-03-23T06:13:56;13.00;93.70
42479;DHT22;28110;47.080;9.476;2023-03-23T06:16:21;13.00;94.40
42479;DHT22;28110;47.080;9.476;2023-03-23T06:18:47;13.10;93.90
42479;DHT22;28110;47.080;9.476;2023-03-23T06:21:13;13.10;93.60
42479;DHT22;28110;47.080;9.476;2023-03-23T06:23:39;13.20;93.60
42479;DHT22;28110;47.080;9.476;2023-03-23T06:26:07;13.30;93.60
42479;DHT22;28110;47.080;9.476;2023-03-23T06:28:33;13.40;93.10
42479;DHT22;28110;47.080;9.476;2023-03-23T06:31:03;13.60;93.10
42479;DHT22;28110;47.080;9.476;2023-03-23T06:33:32;13.60;93.10
42479;DHT22;28110;47.080;9.476;2023-03-23T06:35:59;13.70;92.20
42479;DHT22;28110;47.080;9.476;2023-03-23T06:38:25;13.70;92.40
42479;DHT22;28110;47.080;9.476;2023-03-23T06:40:52;13.70;92.40
42479;DHT22;28110;47.080;9.476;2023-03-23T06:43:18;13.80;91.90
42479;DHT22;28110;47.080;9.476;2023-03-23T06:45:44;13.90;92.30
42479;DHT22;28110;47.080;9.476;2023-03-23T06:48:10;14.00;91.90
42479;DHT22;28110;47.080;9.476;2023-03-23T06:50:35;14.10;91.80
42479;DHT22;28110;47.080;9.476;2023-03-23T06:53:01;14.10;92.10
42479;DHT22;28110;47.080;9.476;2023-03-23T06:55:26;14.30;91.80
42479;DHT22;28110;47.080;9.476;2023-03-23T06:57:52;14.40;91.60
42479;DHT22;28110;47.080;9.476;2023-03-23T07:00:17;14.30;91.70
42479;DHT22;28110;47.080;9.476;2023-03-23T07:02:43;14.40;91.30
42479;DHT22;28110;47.080;9.476;2023-03-23T07:05:10;14.40;91.40
42479;DHT22;28110;47.080;9.476;2023-03-23T07:07:37;14.40;91.60
42479;DHT22;28110;47.080;9.476;2023-03-23T07:10:04;14.40;91.30
42479;DHT22;28110;47.080;9.476;2023-03-23T07:12:31;14.40;90.50
42479;DHT22;28110;47.080;9.476;2023-03-23T07:14:56;14.40;90.70
42479;DHT22;28110;47.080;9.476;2023-03-23T07:17:22;14.40;90.80
42479;DHT22;28110;47.080;9.476;2023-03-23T07:19:47;14.50;90.50
42479;DHT22;28110;47.080;9.476;2023-03-23T07:22:13;14.60;90.60
42479;DHT22;28110;47.080;9.476;2023-03-23T07:24:38;14.60;90.40
42479;DHT22;28110;47.080;9.476;2023-03-23T07:27:04;14.70;90.20
42479;DHT22;28110;47.080;9.476;2023-03-23T07:29:30;14.70;90.30
42479;DHT22;28110;47.080;9.476;2023-03-23T07:31:56;14.70;90.20
42479;DHT22;28110;47.080;9.476;2023-03-23T07:34:22;14.80;89.90
42479;DHT22;28110;47.080;9.476;2023-03-23T07:36:47;14.80;90.30
42479;DHT22;28110;47.080;9.476;2023-03-23T07:39:13;14.90;89.70
42479;DHT22;28110;47.080;9.476;2023-03-23T07:41:39;14.90;88.80
42479;DHT22;28110;47.080;9.476;2023-03-23T07:44:05;15.00;88.50
42479;DHT22;28110;47.080;9.476;2023-03-23T07:46:31;15.10;87.40
42479;DHT22;28110;47.080;9.476;2023-03-23T07:48:57;15.30;86.70
42479;DHT22;28110;47.080;9.476;2023-03-23T07:51:23;15.50;87.20
42479;DHT22;28110;47.080;9.476;2023-03-23T07:53:50;15.50;86.30
42479;DHT22;28110;47.080;9.476;2023-03-23T07:56:16;15.60;86.10
42479;DHT22;28110;47.080;9.476;2023-03-23T07:58:45;15.60;86.50
42479;DHT22;28110;47.080;9.476;2023-03-23T08:01:11;15.60;84.00
42479;DHT22;28110;47.080;9.476;2023-03-23T08:03:37;15.60;86.30
42479;DHT22;28110;47.080;9.476;2023-03-23T08:06:04;15.50;85.50
42479;DHT22;28110;47.080;9.476;2023-03-23T08:08:29;15.50;86.40
42479;DHT22;28110;47.080;9.476;2023-03-23T08:10:55;15.60;85.60
42479;DHT22;28110;47.080;9.476;2023-03-23T08:13:21;15.60;85.10
42479;DHT22;28110;47.080;9.476;2023-03-23T08:15:46;15.60;86.10
42479;DHT22;28110;47.080;9.476;2023-03-23T08:18:12;15.60;85.20
42479;DHT22;28110;47.080;9.476;2023-03-23T08:20:38;15.50;85.50
42479;DHT22;28110;47.080;9.476;2023-03-23T08:23:03;15.50;84.40
42479;DHT22;28110;47.080;9.476;2023-03-23T08:25:30;15.50;85.50
42479;DHT22;28110;47.080;9.476;2023-03-23T08:27:57;15.60;85.90
42479;DHT22;28110;47.080;9.476;2023-03-23T08:30:24;15.60;88.20
42479;DHT22;28110;47.080;9.476;2023-03-23T08:32:51;15.60;87.80
42479;DHT22;28110;47.080;9.476;2023-03-23T08:35:18;15.50;87.10
42479;DHT22;28110;47.080;9.476;2023-03-23T08:37:44;15.50;86.10
42479;DHT22;28110;47.080;9.476;2023-03-23T08:40:12;15.60;86.40
42479;DHT22;28110;47.080;9.476;2023-03-23T08:42:43;15.70;83.90
42479;DHT22;28110;47.080;9.476;2023-03-23T08:45:11;15.90;83.40
42479;DHT22;28110;47.080;9.476;2023-03-23T08:47:37;16.00;83.60
42479;DHT22;28110;47.080;9.476;2023-03-23T08:50:05;16.10;82.40
42479;DHT22;28110;47.080;9.476;2023-03-23T08:52:31;16.30;83.50
42479;DHT22;28110;47.080;9.476;2023-03-23T08:54:57;16.50;82.10
42479;DHT22;28110;47.080;9.476;2023-03-23T08:57:24;16.70;81.60
42479;DHT22;28110;47.080;9.476;2023-03-23T08:59:50;16.90;80.20
42479;DHT22;28110;47.080;9.476;2023-03-23T09:02:16;17.10;79.90
42479;DHT22;28110;47.080;9.476;2023-03-23T09:04:43;17.10;80.70
42479;DHT22;28110;47.080;9.476;2023-03-23T09:07:12;17.30;80.00
42479;DHT22;28110;47.080;9.476;2023-03-23T09:09:39;17.50;78.50
42479;DHT22;28110;47.080;9.476;2023-03-23T09:12:07;17.50;79.60
42479;DHT22;28110;47.080;9.476;2023-03-23T09:14:37;17.40;78.10
42479;DHT22;28110;47.080;9.476;2023-03-23T09:17:03;17.40;77.60
42479;DHT22;28110;47.080;9.476;2023-03-23T09:19:30;17.40;79.30
42479;DHT22;28110;47.080;9.476;2023-03-23T09:21:56;17.30;78.30
42479;DHT22;28110;47.080;9.476;2023-03-23T09:24:22;17.30;77.10
42479;DHT22;28110;47.080;9.476;2023-03-23T09:26:48;17.30;77.40
42479;DHT22;28110;47.080;9.476;2023-03-23T09:29:13;17.20;77.40
42479;DHT22;28110;47.080;9.476;2023-03-23T09:31:39;17.30;78.70
42479;DHT22;28110;47.080;9.476;2023-03-23T09:34:08;17.30;78.10
42479;DHT22;28110;47.080;9.476;2023-03-23T09:36:37;17.40;78.10
42479;DHT22;28110;47.080;9.476;2023-03-23T09:39:07;17.40;76.80
42479;DHT22;28110;47.080;9.476;2023-03-23T09:44:55;17.40;75.50
42479;DHT22;28110;47.080;9.476;2023-03-23T09:50:14;17.50;77.20
42479;DHT22;28110;47.080;9.476;2023-03-23T09:53:36;17.50;75.80
42479;DHT22;28110;47.080;9.476;2023-03-23T09:55:42;17.50;75.90
42479;DHT22;28110;47.080;9.476;2023-03-23T09:58:27;17.60;76.00
42479;DHT22;28110;47.080;9.476;2023-03-23T10:03:31;17.80;76.00
42479;DHT22;28110;47.080;9.476;2023-03-23T10:05:58;17.80;76.30
42479;DHT22;28110;47.080;9.476;2023-03-23T10:08:26;17.80;75.90
42479;DHT22;28110;47.080;9.476;2023-03-23T10:11:28;17.90;74.70
42479;DHT22;28110;47.080;9.476;2023-03-23T10:14:02;17.90;74.20
42479;DHT22;28110;47.080;9.476;2023-03-23T10:16:37;18.00;73.60
42479;DHT22;28110;47.080;9.476;2023-03-23T10:21:43;18.10;75.20
42479;DHT22;28110;47.080;9.476;2023-03-23T10:24:15;18.10;75.10
42479;DHT22;28110;47.080;9.476;2023-03-23T10:27:13;18.20;73.00
42479;DHT22;28110;47.080;9.476;2023-03-23T10:30:03;18.30;75.20
42479;DHT22;28110;47.080;9.476;2023-03-23T10:35:25;18.50;76.50
42479;DHT22;28110;47.080;9.476;2023-03-23T10:38:03;18.70;76.40
42479;DHT22;28110;47.080;9.476;2023-03-23T10:40:30;18.90;73.70
42479;DHT22;28110;47.080;9.476;2023-03-23T10:42:57;19.10;73.50
42479;DHT22;28110;47.080;9.476;2023-03-23T10:45:29;19.20;72.60
42479;DHT22;28110;47.080;9.476;2023-03-23T10:48:25;19.20;70.60
42479;DHT22;28110;47.080;9.476;2023-03-23T10:50:56;19.30;71.30
42479;DHT22;28110;47.080;9.476;2023-03-23T10:53:35;19.40;69.50
42479;DHT22;28110;47.080;9.476;2023-03-23T10:56:03;19.50;69.40
42479;DHT22;28110;47.080;9.476;2023-03-23T10:58:32;19.70;69.40
42479;DHT22;28110;47.080;9.476;2023-03-23T11:00:59;19.70;68.20
42479;DHT22;28110;47.080;9.476;2023-03-23T11:05:57;19.80;70.40
42479;DHT22;28110;47.080;9.476;2023-03-23T11:08:26;19.90;69.50
42479;DHT22;28110;47.080;9.476;2023-03-23T11:11:17;20.00;68.60
42479;DHT22;28110;47.080;9.476;2023-03-23T11:13:46;20.20;71.10
42479;DHT22;28110;47.080;9.476;2023-03-23T11:16:29;20.30;65.70
42479;DHT22;28110;47.080;9.476;2023-03-23T11:18:58;20.30;67.90
42479;DHT22;28110;47.080;9.476;2023-03-23T11:21:25;20.40;68.00
42479;DHT22;28110;47.080;9.476;2023-03-23T11:23:58;20.50;67.00
42479;DHT22;28110;47.080;9.476;2023-03-23T11:26:28;20.50;67.00
42479;DHT22;28110;47.080;9.476;2023-03-23T11:31:39;20.70;64.90
42479;DHT22;28110;47.080;9.476;2023-03-23T11:34:24;20.70;65.60
42479;DHT22;28110;47.080;9.476;2023-03-23T11:36:58;20.80;67.10
42479;DHT22;28110;47.080;9.476;2023-03-23T11:41:52;20.90;65.30
42479;DHT22;28110;47.080;9.476;2023-03-23T11:44:17;20.90;64.80
42479;DHT22;28110;47.080;9.476;2023-03-23T11:52:23;20.70;71.20
42479;DHT22;28110;47.080;9.476;2023-03-23T11:55:00;20.60;71.60
42479;DHT22;28110;47.080;9.476;2023-03-23T11:57:28;20.60;72.60
42479;DHT22;28110;47.080;9.476;2023-03-23T11:59:56;20.50;73.40
42479;DHT22;28110;47.080;9.476;2023-03-23T12:26:31;20.30;74.30
42479;DHT22;28110;47.080;9.476;2023-03-23T12:29:23;20.20;75.30
42479;DHT22;28110;47.080;9.476;2023-03-23T12:32:13;20.20;73.70
42479;DHT22;28110;47.080;9.476;2023-03-23T12:34:51;20.20;70.40
42479;DHT22;28110;47.080;9.476;2023-03-23T12:37:50;20.10;71.30
42479;DHT22;28110;47.080;9.476;2023-03-23T12:40:39;20.00;69.20
42479;DHT22;28110;47.080;9.476;2023-03-23T12:46:43;20.10;73.30
42479;DHT22;28110;47.080;9.476;2023-03-23T13:00:25;20.60;75.10
42479;DHT22;28110;47.080;9.476;2023-03-23T13:08:10;20.60;73.10
42479;DHT22;28110;47.080;9.476;2023-03-23T13:13:44;20.70;66.90
42479;DHT22;28110;47.080;9.476;2023-03-23T13:21:48;20.70;70.40
42479;DHT22;28110;47.080;9.476;2023-03-23T13:24:19;20.60;70.30
42479;DHT22;28110;47.080;9.476;2023-03-23T13:26:46;20.60;69.60
42479;DHT22;28110;47.080;9.476;2023-03-23T13:29:21;20.60;71.50
42479;DHT22;28110;47.080;9.476;2023-03-23T13:31:50;20.50;70.70
42479;DHT22;28110;47.080;9.476;2023-03-23T13:34:24;20.50;71.50
42479;DHT22;28110;47.080;9.476;2023-03-23T13:36:55;20.40;71.30
42479;DHT22;28110;47.080;9.476;2023-03-23T13:39:25;20.40;72.00
42479;DHT22;28110;47.080;9.476;2023-03-23T13:42:02;20.40;72.30
42479;DHT22;28110;47.080;9.476;2023-03-23T13:47:24;20.40;70.00
42479;DHT22;28110;47.080;9.476;2023-03-23T13:50:24;20.40;71.60
42479;DHT22;28110;47.080;9.476;2023-03-23T13:52:57;20.40;71.90
42479;DHT22;28110;47.080;9.476;2023-03-23T13:55:39;20.40;68.80
42479;DHT22;28110;47.080;9.476;2023-03-23T14:05:38;20.40;68.30
42479;DHT22;28110;47.080;9.476;2023-03-23T14:13:29;20.30;67.60
42479;DHT22;28110;47.080;9.476;2023-03-23T14:16:03;20.30;68.00
42479;DHT22;28110;47.080;9.476;2023-03-23T14:18:38;20.30;66.90
42479;DHT22;28110;47.080;9.476;2023-03-23T14:21:05;20.20;66.40
42479;DHT22;28110;47.080;9.476;2023-03-23T14:23:34;20.30;68.50
42479;DHT22;28110;47.080;9.476;2023-03-23T14:26:04;20.10;65.60
42479;DHT22;28110;47.080;9.476;2023-03-23T14:28:39;20.10;67.40
42479;DHT22;28110;47.080;9.476;2023-03-23T14:31:12;19.90;67.80
42479;DHT22;28110;47.080;9.476;2023-03-23T14:33:40;19.80;68.70
42479;DHT22;28110;47.080;9.476;2023-03-23T14:36:07;19.70;71.20
42479;DHT22;28110;47.080;9.476;2023-03-23T14:38:33;19.60;70.70
42479;DHT22;28110;47.080;9.476;2023-03-23T14:41:03;19.40;71.00
42479;DHT22;28110;47.080;9.476;2023-03-23T14:43:30;19.30;73.00
42479;DHT22;28110;47.080;9.476;2023-03-23T14:46:01;19.10;72.80
42479;DHT22;28110;47.080;9.476;2023-03-23T14:48:27;19.00;74.00
42479;DHT22;28110;47.080;9.476;2023-03-23T14:51:02;18.90;73.60
42479;DHT22;28110;47.080;9.476;2023-03-23T14:53:38;18.80;73.90
42479;DHT22;28110;47.080;9.476;2023-03-23T14:56:19;18.80;74.80
42479;DHT22;28110;47.080;9.476;2023-03-23T14:58:46;18.70;74.20
42479;DHT22;28110;47.080;9.476;2023-03-23T15:01:18;18.70;74.20
42479;DHT22;28110;47.080;9.476;2023-03-23T15:04:00;18.60;75.10
42479;DHT22;28110;47.080;9.476;2023-03-23T15:06:29;18.60;75.50
42479;DHT22;28110;47.080;9.476;2023-03-23T15:09:00;18.60;76.60
42479;DHT22;28110;47.080;9.476;2023-03-23T15:11:37;18.60;75.90
42479;DHT22;28110;47.080;9.476;2023-03-23T15:14:14;18.60;76.00
42479;DHT22;28110;47.080;9.476;2023-03-23T15:16:49;18.60;75.70
42479;DHT22;28110;47.080;9.476;2023-03-23T15:19:24;18.60;75.80
42479;DHT22;28110;47.080;9.476;2023-03-23T15:21:55;18.50;74.30
42479;DHT22;28110;47.080;9.476;2023-03-23T15:24:38;18.40;75.60
42479;DHT22;28110;47.080;9.476;2023-03-23T15:29:49;18.40;77.90
42479;DHT22;28110;47.080;9.476;2023-03-23T15:32:27;18.40;76.90
42479;DHT22;28110;47.080;9.476;2023-03-23T15:34:54;18.40;77.00
42479;DHT22;28110;47.080;9.476;2023-03-23T15:37:29;18.40;76.90
42479;DHT22;28110;47.080;9.476;2023-03-23T15:39:56;18.40;76.40
42479;DHT22;28110;47.080;9.476;2023-03-23T15:42:29;18.40;77.60
42479;DHT22;28110;47.080;9.476;2023-03-23T15:47:46;18.40;76.50
42479;DHT22;28110;47.080;9.476;2023-03-23T15:50:34;18.40;76.00
42479;DHT22;28110;47.080;9.476;2023-03-23T15:53:16;18.40;77.10
42479;DHT22;28110;47.080;9.476;2023-03-23T15:55:43;18.30;77.10
42479;DHT22;28110;47.080;9.476;2023-03-23T15:58:12;18.30;76.20
42479;DHT22;28110;47.080;9.476;2023-03-23T16:00:39;18.30;76.30
42479;DHT22;28110;47.080;9.476;2023-03-23T16:03:10;18.30;76.50
42479;DHT22;28110;47.080;9.476;2023-03-23T16:05:36;18.20;77.50
42479;DHT22;28110;47.080;9.476;2023-03-23T16:08:02;18.20;77.60
42479;DHT22;28110;47.080;9.476;2023-03-23T16:10:27;18.20;77.50
42479;DHT22;28110;47.080;9.476;2023-03-23T16:12:53;18.10;78.30
42479;DHT22;28110;47.080;9.476;2023-03-23T16:15:19;18.10;77.00
42479;DHT22;28110;47.080;9.476;2023-03-23T16:17:44;18.10;77.30
42479;DHT22;28110;47.080;9.476;2023-03-23T16:20:13;18.10;77.50
42479;DHT22;28110;47.080;9.476;2023-03-23T16:22:39;18.00;78.90
42479;DHT22;28110;47.080;9.476;2023-03-23T16:25:05;18.00;77.70
42479;DHT22;28110;47.080;9.476;2023-03-23T16:27:31;18.00;77.70
42479;DHT22;28110;47.080;9.476;2023-03-23T16:29:57;18.00;77.70
42479;DHT22;28110;47.080;9.476;2023-03-23T16:32:25;18.00;78.20
42479;DHT22;28110;47.080;9.476;2023-03-23T16:34:50;17.90;78.00
42479;DHT22;28110;47.080;9.476;2023-03-23T16:37:16;17.90;77.90
42479;DHT22;28110;47.080;9.476;2023-03-23T16:39:42;17.90;78.00
42479;DHT22;28110;47.080;9.476;2023-03-23T16:42:08;17.90;78.10
42479;DHT22;28110;47.080;9.476;2023-03-23T16:44:33;17.80;78.70
42479;DHT22;28110;47.080;9.476;2023-03-23T16:46:59;17.80;79.10
42479;DHT22;28110;47.080;9.476;2023-03-23T16:49:24;17.70;78.90
42479;DHT22;28110;47.080;9.476;2023-03-23T16:51:50;17.70;79.20
42479;DHT22;28110;47.080;9.476;2023-03-23T16:54:15;17.70;79.70
42479;DHT22;28110;47.080;9.476;2023-03-23T16:56:41;17.60;80.40
42479;DHT22;28110;47.080;9.476;2023-03-23T16:59:11;17.50;81.10
42479;DHT22;28110;47.080;9.476;2023-03-23T17:01:37;17.50;81.80
42479;DHT22;28110;47.080;9.476;2023-03-23T17:04:03;17.40;81.50
42479;DHT22;28110;47.080;9.476;2023-03-23T17:06:29;17.40;82.90
42479;DHT22;28110;47.080;9.476;2023-03-23T17:08:54;17.30;82.30
42479;DHT22;28110;47.080;9.476;2023-03-23T17:11:20;17.30;83.00
42479;DHT22;28110;47.080;9.476;2023-03-23T17:13:45;17.30;83.50
42479;DHT22;28110;47.080;9.476;2023-03-23T17:16:11;17.20;83.20
42479;DHT22;28110;47.080;9.476;2023-03-23T17:18:36;17.20;83.50
42479;DHT22;28110;47.080;9.476;2023-03-23T17:21:02;17.20;84.40
42479;DHT22;28110;47.080;9.476;2023-03-23T17:23:28;17.10;84.70
42479;DHT22;28110;47.080;9.476;2023-03-23T17:25:53;17.00;85.00
42479;DHT22;28110;47.080;9.476;2023-03-23T17:28:19;17.00;85.30
42479;DHT22;28110;47.080;9.476;2023-03-23T17:30:45;16.90;88.60
42479;DHT22;28110;47.080;9.476;2023-03-23T17:33:11;16.90;88.30
42479;DHT22;28110;47.080;9.476;2023-03-23T17:35:37;16.80;88.90
42479;DHT22;28110;47.080;9.476;2023-03-23T17:38:03;16.80;89.10
42479;DHT22;28110;47.080;9.476;2023-03-23T17:40:29;16.80;89.50
42479;DHT22;28110;47.080;9.476;2023-03-23T17:42:54;16.70;90.70
42479;DHT22;28110;47.080;9.476;2023-03-23T17:45:20;16.70;90.90